createdAt,value
2023-02-22T00:00:05.706Z,3.65
2023-02-22T00:01:05.765Z,3.75
2023-02-22T00:02:05.743Z,3.84
2023-02-22T00:03:06.308Z,3.91
2023-02-22T00:04:05.698Z,3.95
2023-02-22T00:05:05.667Z,3.97
2023-02-22T00:06:05.645Z,3.98
2023-02-22T00:07:05.646Z,4.00
2023-02-22T00:08:05.682Z,4.01
2023-02-22T00:09:05.631Z,4.02
2023-02-22T00:10:05.609Z,4.03
2023-02-22T00:11:05.602Z,4.04
2023-02-22T00:12:05.604Z,4.05
2023-02-22T00:13:05.621Z,4.08
2023-02-22T00:14:05.584Z,4.11
2023-02-22T00:15:05.587Z,4.14
2023-02-22T00:16:05.634Z,4.15
2023-02-22T00:17:05.585Z,4.14
2023-02-22T00:18:05.578Z,4.12
2023-02-22T00:19:05.519Z,4.10
2023-02-22T00:20:05.568Z,4.09
2023-02-22T00:21:05.500Z,4.08
2023-02-22T00:22:05.505Z,4.07
2023-02-22T00:23:05.509Z,4.06
2023-02-22T00:24:05.532Z,4.04
2023-02-22T00:25:05.530Z,4.02
2023-02-22T00:26:05.453Z,3.99
2023-02-22T00:27:05.537Z,3.95
2023-02-22T00:28:05.427Z,3.91
2023-02-22T00:29:05.527Z,3.87
2023-02-22T00:30:05.619Z,3.84
2023-02-22T00:31:05.396Z,3.82
2023-02-22T00:32:05.498Z,3.80
2023-02-22T00:33:05.410Z,3.79
2023-02-22T00:34:05.414Z,3.77
2023-02-22T00:35:05.409Z,3.75
2023-02-22T00:36:05.394Z,3.72
2023-02-22T00:37:05.432Z,3.69
2023-02-22T00:38:05.389Z,3.66
2023-02-22T00:39:05.347Z,3.65
2023-02-22T00:40:05.346Z,3.66
2023-02-22T00:41:05.321Z,3.67
2023-02-22T00:42:05.350Z,3.67
2023-02-22T00:43:05.339Z,3.68
2023-02-22T00:44:05.339Z,3.69
2023-02-22T00:45:05.274Z,3.71
2023-02-22T00:46:05.473Z,3.74
2023-02-22T00:47:05.289Z,3.78
2023-02-22T00:48:05.320Z,3.83
2023-02-22T00:49:05.224Z,3.88
2023-02-22T00:50:05.304Z,3.91
2023-02-22T00:51:06.343Z,3.93
2023-02-22T00:52:05.212Z,3.94
2023-02-22T00:53:05.199Z,3.95
2023-02-22T00:54:05.199Z,3.94
2023-02-22T00:55:05.156Z,3.92
2023-02-22T00:56:05.258Z,3.87
2023-02-22T00:57:05.208Z,3.83
2023-02-22T00:58:05.226Z,3.79
2023-02-22T00:59:05.167Z,3.77
2023-02-22T01:00:05.218Z,3.73
2023-02-22T01:01:05.117Z,3.70
2023-02-22T01:02:05.282Z,3.68
2023-02-22T01:03:05.095Z,3.66
2023-02-22T01:04:05.194Z,3.67
2023-02-22T01:05:05.113Z,3.69
2023-02-22T01:06:05.090Z,3.73
2023-02-22T01:07:05.066Z,3.76
2023-02-22T01:08:05.037Z,3.79
2023-02-22T01:09:05.070Z,3.81
2023-02-22T01:10:05.089Z,3.83
2023-02-22T01:11:05.070Z,3.84
2023-02-22T01:12:05.137Z,3.85
2023-02-22T01:13:05.011Z,3.85
2023-02-22T01:14:05.013Z,3.85
2023-02-22T01:15:05.089Z,3.86
2023-02-22T01:16:04.962Z,3.86
2023-02-22T01:17:04.988Z,3.87
2023-02-22T01:18:04.973Z,3.88
2023-02-22T01:19:04.940Z,3.89
2023-02-22T01:20:04.947Z,3.89
2023-02-22T01:21:04.992Z,3.86
2023-02-22T01:22:04.927Z,3.80
2023-02-22T01:23:04.915Z,3.72
2023-02-22T01:24:04.914Z,3.63
2023-02-22T01:25:04.881Z,3.55
2023-02-22T01:26:04.865Z,3.48
2023-02-22T01:27:04.860Z,3.40
2023-02-22T01:28:04.838Z,3.33
2023-02-22T01:29:04.853Z,3.26
2023-02-22T01:30:04.849Z,3.20
2023-02-22T01:31:04.876Z,3.14
2023-02-22T01:32:04.891Z,3.09
2023-02-22T01:33:04.824Z,3.05
2023-02-22T01:34:04.818Z,3.01
2023-02-22T01:35:04.811Z,2.98
2023-02-22T01:36:04.785Z,2.96
2023-02-22T01:37:04.803Z,2.95
2023-02-22T01:38:04.747Z,2.95
2023-02-22T01:39:04.799Z,2.96
2023-02-22T01:40:04.740Z,2.97
2023-02-22T01:41:04.792Z,3.00
2023-02-22T01:42:04.723Z,3.02
2023-02-22T01:43:04.718Z,3.02
2023-02-22T01:44:04.715Z,3.02
2023-02-22T01:45:04.827Z,3.00
2023-02-22T01:46:04.782Z,2.99
2023-02-22T01:47:04.739Z,2.99
2023-02-22T01:48:04.677Z,2.99
2023-02-22T01:49:04.652Z,2.99
2023-02-22T01:50:04.665Z,2.98
2023-02-22T01:51:04.645Z,2.98
2023-02-22T01:52:04.636Z,2.98
2023-02-22T01:53:04.598Z,2.97
2023-02-22T01:54:04.680Z,2.95
2023-02-22T01:55:04.601Z,2.91
2023-02-22T01:56:04.571Z,2.84
2023-02-22T01:57:04.599Z,2.77
2023-02-22T01:58:04.600Z,2.69
2023-02-22T01:59:04.709Z,2.62
2023-02-22T02:00:04.547Z,2.55
2023-02-22T02:02:22.296Z,3.60
2023-02-22T02:03:23.282Z,3.11
2023-02-22T02:04:23.264Z,2.80
2023-02-22T02:05:23.310Z,2.63
2023-02-22T02:06:23.240Z,2.53
2023-02-22T02:07:23.357Z,2.48
2023-02-22T02:08:23.250Z,2.44
2023-02-22T02:09:23.223Z,2.41
2023-02-22T02:10:23.213Z,2.41
2023-02-22T02:11:23.195Z,2.43
2023-02-22T02:12:23.188Z,2.47
2023-02-22T02:13:23.200Z,2.50
2023-02-22T02:14:23.176Z,2.54
2023-02-22T02:15:23.153Z,2.56
2023-02-22T02:16:23.206Z,2.58
2023-02-22T02:17:23.146Z,2.59
2023-02-22T02:18:23.126Z,2.58
2023-02-22T02:19:23.142Z,2.56
2023-02-22T02:20:23.119Z,2.53
2023-02-22T02:21:23.088Z,2.49
2023-02-22T02:22:23.119Z,2.44
2023-02-22T02:23:23.082Z,2.38
2023-02-22T02:24:23.062Z,2.32
2023-02-22T02:25:23.070Z,2.27
2023-02-22T02:26:23.059Z,2.23
2023-02-22T02:27:23.069Z,2.19
2023-02-22T02:28:23.031Z,2.17
2023-02-22T02:29:23.053Z,2.15
2023-02-22T02:30:23.064Z,2.14
2023-02-22T02:31:23.088Z,2.13
2023-02-22T02:32:23.159Z,2.15
2023-02-22T02:33:22.987Z,2.19
2023-02-22T02:34:22.977Z,2.23
2023-02-22T02:35:22.970Z,2.27
2023-02-22T02:36:22.997Z,2.32
2023-02-22T02:37:22.936Z,2.36
2023-02-22T02:38:23.001Z,2.40
2023-02-22T02:39:22.915Z,2.42
2023-02-22T02:40:22.981Z,2.42
2023-02-22T02:41:22.897Z,2.41
2023-02-22T02:42:22.898Z,2.37
2023-02-22T02:43:22.895Z,2.34
2023-02-22T02:44:22.889Z,2.31
2023-02-22T02:45:22.860Z,2.28
2023-02-22T02:46:22.890Z,2.26
2023-02-22T02:47:22.956Z,2.26
2023-02-22T02:48:22.835Z,2.26
2023-02-22T02:49:22.824Z,2.29
2023-02-22T02:50:22.826Z,2.34
2023-02-22T02:51:22.798Z,2.40
2023-02-22T02:52:22.814Z,2.46
2023-02-22T02:53:22.793Z,2.52
2023-02-22T02:54:22.818Z,2.56
2023-02-22T02:55:22.755Z,2.60
2023-02-22T02:56:22.757Z,2.63
2023-02-22T02:57:22.740Z,2.66
2023-02-22T02:58:22.736Z,2.68
2023-02-22T02:59:22.727Z,2.69
2023-02-22T03:00:22.839Z,2.70
2023-02-22T03:01:22.730Z,2.72
2023-02-22T03:02:22.710Z,2.73
2023-02-22T03:03:22.696Z,2.74
2023-02-22T03:04:22.689Z,2.75
2023-02-22T03:05:22.669Z,2.76
2023-02-22T03:06:22.666Z,2.77
2023-02-22T03:07:22.721Z,2.78
2023-02-22T03:08:22.636Z,2.78
2023-02-22T03:09:22.626Z,2.80
2023-02-22T03:10:22.620Z,2.80
2023-02-22T03:11:22.604Z,2.79
2023-02-22T03:12:22.618Z,2.76
2023-02-22T03:13:22.604Z,2.73
2023-02-22T03:14:22.599Z,2.70
2023-02-22T03:15:22.573Z,2.66
2023-02-22T03:16:22.554Z,2.63
2023-02-22T03:17:22.576Z,2.59
2023-02-22T03:18:22.532Z,2.56
2023-02-22T03:19:22.547Z,2.51
2023-02-22T03:20:22.581Z,2.46
2023-02-22T03:21:22.535Z,2.41
2023-02-22T03:22:22.496Z,2.36
2023-02-22T03:23:22.490Z,2.33
2023-02-22T03:24:22.537Z,2.30
2023-02-22T03:25:22.485Z,2.27
2023-02-22T03:26:22.472Z,2.25
2023-02-22T03:27:22.477Z,2.22
2023-02-22T03:28:22.449Z,2.20
2023-02-22T03:29:22.489Z,2.17
2023-02-22T03:30:22.449Z,2.15
2023-02-22T03:31:22.552Z,2.13
2023-02-22T03:32:22.454Z,2.10
2023-02-22T03:33:22.399Z,2.08
2023-02-22T03:34:22.437Z,2.07
2023-02-22T03:35:22.383Z,2.06
2023-02-22T03:36:22.375Z,2.04
2023-02-22T03:37:22.378Z,2.03
2023-02-22T03:38:22.338Z,2.02
2023-02-22T03:39:22.340Z,2.01
2023-02-22T03:40:22.352Z,2.01
2023-02-22T03:41:22.348Z,2.02
2023-02-22T03:42:22.315Z,2.04
2023-02-22T03:43:22.289Z,2.07
2023-02-22T03:44:22.304Z,2.11
2023-02-22T03:45:22.283Z,2.17
2023-02-22T03:46:22.341Z,2.23
2023-02-22T03:47:22.268Z,2.29
2023-02-22T03:48:22.292Z,2.36
2023-02-22T03:49:22.240Z,2.42
2023-02-22T03:50:22.229Z,2.47
2023-02-22T03:51:22.647Z,2.51
2023-02-22T03:52:22.216Z,2.53
2023-02-22T03:53:22.200Z,2.54
2023-02-22T03:54:22.207Z,2.54
2023-02-22T03:55:22.192Z,2.53
2023-02-22T03:56:22.169Z,2.52
2023-02-22T03:57:22.164Z,2.49
2023-02-22T03:58:22.160Z,2.47
2023-02-22T03:59:22.135Z,2.46
2023-02-22T04:00:22.164Z,2.45
2023-02-22T04:01:22.116Z,2.46
2023-02-22T04:02:22.121Z,2.47
2023-02-22T04:03:22.160Z,2.47
2023-02-22T04:04:22.096Z,2.49
2023-02-22T04:05:22.097Z,2.50
2023-02-22T04:06:22.104Z,2.52
2023-02-22T04:07:22.068Z,2.53
2023-02-22T04:08:22.072Z,2.54
2023-02-22T04:09:22.068Z,2.55
2023-02-22T04:10:22.039Z,2.56
2023-02-22T04:11:22.055Z,2.56
2023-02-22T04:12:22.015Z,2.55
2023-02-22T04:13:22.015Z,2.54
2023-02-22T04:14:23.821Z,2.52
2023-02-22T04:15:21.980Z,2.51
2023-02-22T04:16:22.008Z,2.48
2023-02-22T04:17:21.955Z,2.46
2023-02-22T04:18:21.971Z,2.44
2023-02-22T04:19:22.017Z,2.42
2023-02-22T04:20:21.931Z,2.41
2023-02-22T04:21:21.931Z,2.39
2023-02-22T04:22:21.919Z,2.36
2023-02-22T04:23:21.903Z,2.32
2023-02-22T04:24:21.903Z,2.28
2023-02-22T04:25:21.910Z,2.25
2023-02-22T04:26:21.867Z,2.23
2023-02-22T04:27:21.864Z,2.19
2023-02-22T04:28:21.866Z,2.15
2023-02-22T04:29:21.863Z,2.11
2023-02-22T04:30:21.929Z,2.08
2023-02-22T04:31:21.837Z,2.05
2023-02-22T04:32:21.835Z,2.02
2023-02-22T04:33:21.805Z,1.98
2023-02-22T04:34:21.786Z,1.95
2023-02-22T04:35:21.797Z,1.93
2023-02-22T04:36:21.824Z,1.93
2023-02-22T04:37:21.758Z,1.94
2023-02-22T04:38:21.760Z,1.94
2023-02-22T04:39:21.813Z,1.96
2023-02-22T04:40:21.740Z,1.97
2023-02-22T04:41:23.370Z,1.98
2023-02-22T04:42:21.737Z,1.98
2023-02-22T04:43:21.726Z,1.96
2023-02-22T04:44:21.698Z,1.94
2023-02-22T04:45:21.682Z,1.93
2023-02-22T04:46:21.723Z,1.92
2023-02-22T04:47:21.666Z,1.91
2023-02-22T04:48:21.648Z,1.89
2023-02-22T04:49:21.654Z,1.88
2023-02-22T04:50:21.657Z,1.85
2023-02-22T04:51:21.653Z,1.83
2023-02-22T04:52:21.631Z,1.80
2023-02-22T04:53:21.616Z,1.77
2023-02-22T04:54:21.591Z,1.76
2023-02-22T04:55:21.628Z,1.75
2023-02-22T04:56:21.592Z,1.73
2023-02-22T04:57:21.570Z,1.71
2023-02-22T04:58:21.561Z,1.69
2023-02-22T04:59:21.555Z,1.67
2023-02-22T05:00:21.544Z,1.67
2023-02-22T05:01:21.572Z,1.66
2023-02-22T05:02:21.603Z,1.66
2023-02-22T05:03:21.535Z,1.65
2023-02-22T05:04:21.518Z,1.64
2023-02-22T05:05:21.548Z,1.61
2023-02-22T05:06:21.482Z,1.58
2023-02-22T05:07:21.475Z,1.57
2023-02-22T05:08:21.536Z,1.59
2023-02-22T05:09:21.457Z,1.63
2023-02-22T05:10:21.440Z,1.67
2023-02-22T05:11:21.451Z,1.69
2023-02-22T05:12:21.420Z,1.71
2023-02-22T05:13:21.415Z,1.71
2023-02-22T05:14:21.408Z,1.71
2023-02-22T05:15:21.408Z,1.71
2023-02-22T05:16:21.420Z,1.70
2023-02-22T05:17:21.388Z,1.69
2023-02-22T05:18:21.372Z,1.68
2023-02-22T05:19:21.409Z,1.67
2023-02-22T05:20:21.359Z,1.66
2023-02-22T05:21:21.345Z,1.64
2023-02-22T05:22:21.315Z,1.61
2023-02-22T05:23:21.341Z,1.59
2023-02-22T05:24:21.311Z,1.60
2023-02-22T05:25:21.293Z,1.62
2023-02-22T05:26:21.312Z,1.65
2023-02-22T05:27:21.278Z,1.68
2023-02-22T05:28:21.268Z,1.70
2023-02-22T05:29:21.341Z,1.72
2023-02-22T05:30:21.275Z,1.75
2023-02-22T05:31:21.396Z,1.76
2023-02-22T05:32:21.305Z,1.77
2023-02-22T05:33:21.257Z,1.77
2023-02-22T05:34:21.255Z,1.76
2023-02-22T05:35:21.193Z,1.73
2023-02-22T05:36:21.302Z,1.67
2023-02-22T05:37:21.181Z,1.61
2023-02-22T05:38:21.183Z,1.57
2023-02-22T05:39:21.180Z,1.54
2023-02-22T05:40:21.169Z,1.52
2023-02-22T05:41:21.157Z,1.51
2023-02-22T05:42:21.139Z,1.51
2023-02-22T05:43:21.070Z,1.52
2023-02-22T05:44:21.122Z,1.53
2023-02-22T05:45:21.116Z,1.52
2023-02-22T05:46:21.121Z,1.50
2023-02-22T05:47:21.097Z,1.47
2023-02-22T05:48:22.642Z,1.43
2023-02-22T05:49:21.075Z,1.39
2023-02-22T05:50:21.020Z,1.37
2023-02-22T05:51:21.007Z,1.36
2023-02-22T05:52:20.981Z,1.35
2023-02-22T05:53:20.987Z,1.35
2023-02-22T05:54:20.989Z,1.34
2023-02-22T05:55:20.951Z,1.33
2023-02-22T05:56:20.961Z,1.33
2023-02-22T05:57:20.943Z,1.32
2023-02-22T05:58:20.914Z,1.30
2023-02-22T05:59:20.918Z,1.28
2023-02-22T06:00:20.951Z,1.28
2023-02-22T06:01:21.052Z,1.28
2023-02-22T06:02:20.904Z,1.29
2023-02-22T06:03:20.890Z,1.31
2023-02-22T06:04:20.857Z,1.33
2023-02-22T06:05:20.873Z,1.36
2023-02-22T06:06:22.346Z,1.39
2023-02-22T06:07:20.841Z,1.44
2023-02-22T06:08:21.067Z,1.48
2023-02-22T06:09:20.812Z,1.52
2023-02-22T06:10:20.811Z,1.56
2023-02-22T06:11:20.796Z,1.60
2023-02-22T06:12:20.806Z,1.65
2023-02-22T06:13:20.771Z,1.69
2023-02-22T06:14:20.758Z,1.72
2023-02-22T06:15:20.751Z,1.73
2023-02-22T06:16:20.777Z,1.71
2023-02-22T06:17:20.758Z,1.67
2023-02-22T06:18:20.765Z,1.63
2023-02-22T06:19:20.744Z,1.59
2023-02-22T06:20:20.714Z,1.53
2023-02-22T06:21:20.686Z,1.46
2023-02-22T06:22:20.699Z,1.39
2023-02-22T06:23:20.695Z,1.33
2023-02-22T06:24:20.689Z,1.28
2023-02-22T06:25:20.686Z,1.24
2023-02-22T06:26:20.657Z,1.20
2023-02-22T06:27:20.662Z,1.18
2023-02-22T06:28:20.624Z,1.16
2023-02-22T06:29:20.612Z,1.16
2023-02-22T06:30:20.655Z,1.15
2023-02-22T06:31:20.899Z,1.16
2023-02-22T06:32:20.613Z,1.17
2023-02-22T06:33:20.571Z,1.19
2023-02-22T06:34:20.612Z,1.21
2023-02-22T06:35:20.575Z,1.22
2023-02-22T06:36:20.576Z,1.20
2023-02-22T06:37:20.550Z,1.18
2023-02-22T06:38:20.535Z,1.15
2023-02-22T06:39:20.530Z,1.13
2023-02-22T06:40:20.527Z,1.13
2023-02-22T06:41:20.538Z,1.14
2023-02-22T06:42:21.333Z,1.15
2023-02-22T06:43:20.742Z,1.15
2023-02-22T06:44:20.461Z,1.15
2023-02-22T06:45:20.520Z,1.16
2023-02-22T06:46:20.466Z,1.16
2023-02-22T06:47:20.468Z,1.16
2023-02-22T06:48:20.458Z,1.17
2023-02-22T06:49:20.445Z,1.20
2023-02-22T06:50:20.412Z,1.24
2023-02-22T06:51:20.392Z,1.30
2023-02-22T06:52:20.417Z,1.36
2023-02-22T06:53:20.386Z,1.41
2023-02-22T06:54:20.410Z,1.44
2023-02-22T06:55:20.373Z,1.43
2023-02-22T06:56:20.540Z,1.39
2023-02-22T06:57:20.341Z,1.36
2023-02-22T06:58:20.646Z,1.35
2023-02-22T06:59:20.348Z,1.37
2023-02-22T07:00:20.685Z,1.39
2023-02-22T07:01:20.542Z,1.42
2023-02-22T07:02:20.290Z,1.46
2023-02-22T07:03:20.290Z,1.49
2023-02-22T07:04:20.276Z,1.52
2023-02-22T07:05:20.310Z,1.55
2023-02-22T07:06:20.290Z,1.59
2023-02-22T07:07:20.265Z,1.63
2023-02-22T07:08:20.230Z,1.67
2023-02-22T07:09:20.227Z,1.71
2023-02-22T07:10:20.227Z,1.74
2023-02-22T07:11:20.208Z,1.77
2023-02-22T07:12:20.216Z,1.80
2023-02-22T07:13:20.196Z,1.83
2023-02-22T07:14:20.178Z,1.87
2023-02-22T07:15:20.180Z,1.92
2023-02-22T07:16:20.224Z,1.96
2023-02-22T07:17:20.146Z,2.00
2023-02-22T07:18:20.135Z,2.03
2023-02-22T07:19:20.146Z,2.07
2023-02-22T07:20:20.121Z,2.10
2023-02-22T07:21:20.174Z,2.13
2023-02-22T07:22:20.129Z,2.15
2023-02-22T07:23:20.087Z,2.17
2023-02-22T07:24:20.078Z,2.20
2023-02-22T07:25:20.078Z,2.23
2023-02-22T07:26:20.141Z,2.26
2023-02-22T07:27:20.093Z,2.30
2023-02-22T07:28:20.046Z,2.35
2023-02-22T07:29:20.029Z,2.40
2023-02-22T07:30:20.076Z,2.45
2023-02-22T07:31:20.045Z,2.50
2023-02-22T07:32:20.130Z,2.56
2023-02-22T07:33:19.987Z,2.61
2023-02-22T07:34:20.033Z,2.67
2023-02-22T07:35:19.990Z,2.73
2023-02-22T07:36:19.988Z,2.79
2023-02-22T07:37:19.966Z,2.84
2023-02-22T07:38:19.976Z,2.90
2023-02-22T07:39:19.948Z,2.95
2023-02-22T07:40:19.917Z,3.00
2023-02-22T07:41:19.957Z,3.05
2023-02-22T07:42:19.898Z,3.11
2023-02-22T07:43:19.925Z,3.16
2023-02-22T07:44:19.948Z,3.21
2023-02-22T07:45:19.870Z,3.27
2023-02-22T07:46:19.852Z,3.32
2023-02-22T07:47:19.866Z,3.37
2023-02-22T07:48:19.882Z,3.42
2023-02-22T07:49:19.843Z,3.48
2023-02-22T07:50:19.817Z,3.54
2023-02-22T07:51:19.859Z,3.60
2023-02-22T07:52:19.859Z,3.68
2023-02-22T07:53:19.804Z,3.77
2023-02-22T07:54:19.776Z,3.85
2023-02-22T07:55:19.772Z,3.93
2023-02-22T07:56:19.874Z,4.01
2023-02-22T07:57:19.790Z,4.09
2023-02-22T07:58:19.781Z,4.16
2023-02-22T07:59:19.850Z,4.23
2023-02-22T08:00:19.717Z,4.29
2023-02-22T08:01:19.990Z,4.33
2023-02-22T08:02:19.736Z,4.35
2023-02-22T08:03:19.728Z,4.35
2023-02-22T08:04:20.146Z,4.34
2023-02-22T08:05:19.682Z,4.34
2023-02-22T08:06:19.814Z,4.34
2023-02-22T08:07:19.664Z,4.35
2023-02-22T08:08:20.086Z,4.34
2023-02-22T08:09:19.677Z,4.34
2023-02-22T08:10:19.611Z,4.35
2023-02-22T08:11:19.832Z,4.35
2023-02-22T08:12:19.618Z,4.37
2023-02-22T08:13:19.589Z,4.38
2023-02-22T08:14:19.591Z,4.40
2023-02-22T08:15:19.693Z,4.43
2023-02-22T08:16:19.570Z,4.47
2023-02-22T08:17:19.570Z,4.51
2023-02-22T08:18:19.560Z,4.54
2023-02-22T08:19:19.587Z,4.57
2023-02-22T08:20:19.535Z,4.62
2023-02-22T08:21:19.744Z,4.67
2023-02-22T08:22:21.790Z,4.73
2023-02-22T08:23:19.492Z,4.79
2023-02-22T08:24:19.469Z,4.85
2023-02-22T08:25:19.481Z,4.92
2023-02-22T08:26:19.475Z,5.01
2023-02-22T08:27:19.431Z,5.12
2023-02-22T08:28:19.436Z,5.20
2023-02-22T08:29:19.452Z,5.25
2023-02-22T08:30:19.443Z,5.27
2023-02-22T08:31:19.835Z,5.30
2023-02-22T08:32:19.567Z,5.34
2023-02-22T08:33:19.960Z,5.42
2023-02-22T08:34:19.370Z,5.50
2023-02-22T08:35:19.524Z,5.55
2023-02-22T08:36:19.347Z,5.58
2023-02-22T08:37:19.378Z,5.62
2023-02-22T08:38:19.357Z,5.68
2023-02-22T08:39:19.318Z,5.75
2023-02-22T08:40:19.311Z,5.80
2023-02-22T08:41:19.529Z,5.85
2023-02-22T08:42:19.319Z,5.91
2023-02-22T08:43:19.289Z,5.96
2023-02-22T08:44:19.297Z,5.99
2023-02-22T08:45:19.299Z,6.00
2023-02-22T08:46:19.412Z,6.01
2023-02-22T08:47:19.235Z,6.02
2023-02-22T08:48:19.222Z,6.02
2023-02-22T08:49:19.222Z,6.02
2023-02-22T08:50:19.249Z,6.01
2023-02-22T08:51:19.318Z,6.01
2023-02-22T08:52:19.218Z,6.03
2023-02-22T08:53:19.202Z,6.07
2023-02-22T08:54:19.156Z,6.10
2023-02-22T08:55:19.151Z,6.11
2023-02-22T08:56:19.171Z,6.10
2023-02-22T08:57:21.405Z,6.10
2023-02-22T08:58:19.132Z,6.11
2023-02-22T08:59:19.119Z,6.12
2023-02-22T09:00:19.123Z,6.13
2023-02-22T09:01:24.875Z,6.09
2023-02-22T09:02:19.159Z,6.04
2023-02-22T09:03:19.384Z,6.01
2023-02-22T09:04:19.056Z,6.00
2023-02-22T09:05:19.053Z,6.01
2023-02-22T09:06:19.059Z,6.00
2023-02-22T09:07:19.038Z,5.98
2023-02-22T09:08:19.088Z,5.94
2023-02-22T09:09:19.098Z,5.90
2023-02-22T09:10:18.991Z,5.86
2023-02-22T09:11:19.125Z,5.83
2023-02-22T09:12:19.004Z,5.80
2023-02-22T09:13:18.975Z,5.77
2023-02-22T09:14:18.993Z,5.74
2023-02-22T09:15:18.944Z,5.72
2023-02-22T09:16:18.959Z,5.73
2023-02-22T09:17:19.003Z,5.76
2023-02-22T09:18:18.946Z,5.79
2023-02-22T09:19:18.950Z,5.82
2023-02-22T09:20:18.903Z,5.85
2023-02-22T09:21:19.217Z,5.87
2023-02-22T09:22:18.873Z,5.88
2023-02-22T09:23:21.328Z,5.88
2023-02-22T09:24:19.011Z,5.90
2023-02-22T09:25:18.843Z,5.93
2023-02-22T09:26:18.851Z,5.96
2023-02-22T09:27:18.848Z,5.99
2023-02-22T09:28:18.831Z,6.03
2023-02-22T09:29:18.807Z,6.04
2023-02-22T09:30:18.854Z,6.04
2023-02-22T09:31:19.184Z,6.06
2023-02-22T09:32:19.048Z,6.08
2023-02-22T09:33:18.852Z,6.09
2023-02-22T09:34:18.770Z,6.11
2023-02-22T09:35:18.798Z,6.13
2023-02-22T09:36:18.961Z,6.15
2023-02-22T09:37:18.840Z,6.19
2023-02-22T09:38:18.800Z,6.27
2023-02-22T09:39:18.739Z,6.37
2023-02-22T09:40:18.694Z,6.50
2023-02-22T09:41:18.856Z,6.64
2023-02-22T09:42:18.757Z,6.77
2023-02-22T09:43:18.699Z,6.88
2023-02-22T09:44:18.662Z,6.94
2023-02-22T09:45:18.654Z,6.96
2023-02-22T09:46:19.118Z,6.97
2023-02-22T09:47:18.656Z,7.00
2023-02-22T09:48:22.369Z,7.05
2023-02-22T09:49:18.613Z,7.12
2023-02-22T09:50:18.594Z,7.21
2023-02-22T09:51:18.573Z,7.35
2023-02-22T09:52:18.607Z,7.49
2023-02-22T09:53:18.568Z,7.55
2023-02-22T09:54:18.558Z,7.55
2023-02-22T09:55:18.550Z,7.55
2023-02-22T09:56:19.169Z,7.59
2023-02-22T09:57:18.675Z,7.69
2023-02-22T09:58:18.572Z,7.75
2023-02-22T09:59:18.630Z,7.74
2023-02-22T10:00:18.502Z,7.66
2023-02-22T10:01:18.478Z,7.56
2023-02-22T10:02:18.531Z,7.53
2023-02-22T10:03:21.015Z,7.55
2023-02-22T10:04:18.486Z,7.60
2023-02-22T10:05:18.453Z,7.66
2023-02-22T10:06:18.838Z,7.71
2023-02-22T10:07:18.452Z,7.74
2023-02-22T10:08:18.421Z,7.79
2023-02-22T10:09:18.393Z,7.85
2023-02-22T10:10:18.411Z,7.92
2023-02-22T10:11:18.379Z,8.03
2023-02-22T10:12:18.406Z,8.20
2023-02-22T10:13:18.343Z,8.39
2023-02-22T10:14:18.374Z,8.57
2023-02-22T10:15:18.330Z,8.69
2023-02-22T10:16:18.695Z,8.77
2023-02-22T10:17:18.305Z,8.84
2023-02-22T10:18:18.354Z,8.90
2023-02-22T10:19:18.333Z,8.99
2023-02-22T10:20:18.306Z,9.06
2023-02-22T10:21:18.274Z,9.10
2023-02-22T10:22:18.306Z,9.12
2023-02-22T10:23:18.244Z,9.08
2023-02-22T10:24:18.257Z,9.04
2023-02-22T10:25:18.242Z,9.07
2023-02-22T10:26:18.614Z,9.11
2023-02-22T10:27:18.207Z,9.14
2023-02-22T10:28:18.217Z,9.15
2023-02-22T10:29:18.189Z,9.13
2023-02-22T10:30:24.483Z,9.12
2023-02-22T10:31:18.240Z,9.12
2023-02-22T10:32:18.322Z,9.14
2023-02-22T10:33:18.186Z,9.18
2023-02-22T10:34:18.134Z,9.26
2023-02-22T10:35:18.130Z,9.35
2023-02-22T10:36:18.502Z,9.42
2023-02-22T10:37:18.171Z,9.49
2023-02-22T10:38:18.115Z,9.52
2023-02-22T10:39:18.115Z,9.47
2023-02-22T10:40:18.115Z,9.35
2023-02-22T10:41:18.084Z,9.26
2023-02-22T10:42:18.090Z,9.23
2023-02-22T10:43:18.079Z,9.24
2023-02-22T10:44:18.135Z,9.29
2023-02-22T10:45:18.025Z,9.34
2023-02-22T10:46:18.332Z,9.35
2023-02-22T10:47:18.744Z,9.33
2023-02-22T10:48:18.148Z,9.34
2023-02-22T10:49:17.986Z,9.34
2023-02-22T10:50:18.072Z,9.34
2023-02-22T10:51:17.996Z,9.36
2023-02-22T10:52:17.962Z,9.35
2023-02-22T10:53:17.943Z,9.32
2023-02-22T10:54:17.945Z,9.30
2023-02-22T10:55:18.067Z,9.32
2023-02-22T10:56:18.310Z,9.32
2023-02-22T10:57:18.024Z,9.29
2023-02-22T10:58:17.901Z,9.28
2023-02-22T10:59:17.884Z,9.31
2023-02-22T11:00:17.884Z,9.33
2023-02-22T11:01:18.277Z,9.35
2023-02-22T11:02:17.945Z,9.35
2023-02-22T11:03:17.880Z,9.31
2023-02-22T11:04:17.850Z,9.27
2023-02-22T11:05:17.837Z,9.26
2023-02-22T11:06:18.187Z,9.26
2023-02-22T11:07:17.819Z,9.25
2023-02-22T11:08:17.797Z,9.24
2023-02-22T11:09:17.805Z,9.25
2023-02-22T11:10:17.782Z,9.30
2023-02-22T11:11:18.017Z,9.38
2023-02-22T11:12:17.768Z,9.47
2023-02-22T11:13:17.744Z,9.55
2023-02-22T11:14:17.802Z,9.61
2023-02-22T11:15:17.731Z,9.64
2023-02-22T11:16:17.808Z,9.65
2023-02-22T11:17:17.739Z,9.68
2023-02-22T11:18:17.732Z,9.75
2023-02-22T11:19:17.691Z,9.83
2023-02-22T11:20:17.675Z,9.90
2023-02-22T11:21:17.895Z,9.92
2023-02-22T11:22:17.668Z,9.86
2023-02-22T11:23:17.705Z,9.79
2023-02-22T11:24:22.018Z,9.75
2023-02-22T11:25:17.642Z,9.72
2023-02-22T11:26:17.654Z,9.68
2023-02-22T11:27:17.705Z,9.65
2023-02-22T11:28:17.614Z,9.64
2023-02-22T11:29:17.573Z,9.70
2023-02-22T11:30:17.630Z,9.78
2023-02-22T11:31:18.075Z,9.84
2023-02-22T11:32:17.601Z,9.88
2023-02-22T11:33:17.557Z,9.90
2023-02-22T11:34:17.526Z,9.89
2023-02-22T11:35:19.243Z,9.90
2023-02-22T11:36:17.501Z,9.91
2023-02-22T11:37:17.511Z,9.88
2023-02-22T11:38:17.518Z,9.84
2023-02-22T11:39:17.491Z,9.81
2023-02-22T11:40:17.474Z,9.74
2023-02-22T11:41:17.906Z,9.66
2023-02-22T11:42:17.464Z,9.65
2023-02-22T11:43:17.450Z,9.65
2023-02-22T11:44:17.463Z,9.64
2023-02-22T11:45:17.412Z,9.60
2023-02-22T11:46:17.439Z,9.55
2023-02-22T11:47:17.382Z,9.60
2023-02-22T11:48:17.393Z,9.78
2023-02-22T11:49:17.394Z,10.04
2023-02-22T11:50:17.354Z,10.30
2023-02-22T11:51:17.652Z,10.46
2023-02-22T11:52:17.346Z,10.52
2023-02-22T11:53:17.374Z,10.69
2023-02-22T11:54:17.436Z,10.95
2023-02-22T11:55:17.304Z,11.23
2023-02-22T11:56:18.790Z,11.58
2023-02-22T11:57:17.296Z,11.92
2023-02-22T11:58:17.286Z,12.09
2023-02-22T11:59:17.268Z,12.10
2023-02-22T12:00:17.278Z,11.97
2023-02-22T12:01:17.284Z,11.84
2023-02-22T12:02:17.262Z,11.83
2023-02-22T12:03:17.264Z,11.91
2023-02-22T12:04:17.279Z,12.04
2023-02-22T12:05:17.232Z,12.19
2023-02-22T12:06:17.433Z,12.33
2023-02-22T12:07:17.201Z,12.45
2023-02-22T12:08:20.065Z,12.67
2023-02-22T12:09:17.182Z,12.87
2023-02-22T12:10:17.165Z,12.96
2023-02-22T12:11:17.148Z,13.04
2023-02-22T12:12:17.126Z,13.12
2023-02-22T12:13:17.192Z,13.19
2023-02-22T12:14:17.122Z,13.15
2023-02-22T12:15:17.143Z,13.01
2023-02-22T12:16:17.539Z,12.86
2023-02-22T12:17:17.082Z,12.74
2023-02-22T12:18:17.069Z,12.63
2023-02-22T12:19:17.057Z,12.49
2023-02-22T12:20:17.043Z,12.36
2023-02-22T12:21:17.061Z,12.33
2023-02-22T12:22:17.149Z,12.45
2023-02-22T12:23:17.064Z,12.67
2023-02-22T12:24:17.023Z,12.86
2023-02-22T12:25:16.992Z,12.97
2023-02-22T12:26:17.297Z,13.06
2023-02-22T12:27:17.011Z,13.18
2023-02-22T12:28:24.310Z,13.26
2023-02-22T12:29:16.966Z,13.31
2023-02-22T12:30:16.962Z,13.37
2023-02-22T12:31:17.306Z,13.43
2023-02-22T12:32:17.093Z,13.48
2023-02-22T12:33:16.928Z,13.51
2023-02-22T12:34:17.156Z,13.52
2023-02-22T12:35:16.913Z,13.51
2023-02-22T12:36:16.964Z,13.49
2023-02-22T12:37:16.897Z,13.48
2023-02-22T12:38:16.902Z,13.49
2023-02-22T12:39:16.869Z,13.49
2023-02-22T12:40:16.886Z,13.52
2023-02-22T12:41:17.191Z,13.58
2023-02-22T12:42:16.879Z,13.65
2023-02-22T12:43:16.848Z,13.74
2023-02-22T12:44:16.832Z,13.86
2023-02-22T12:45:16.884Z,13.97
2023-02-22T12:46:16.829Z,14.01
2023-02-22T12:47:16.783Z,13.90
2023-02-22T12:48:16.850Z,13.78
2023-02-22T12:49:16.755Z,13.73
2023-02-22T12:50:16.751Z,13.69
2023-02-22T12:51:17.110Z,13.61
2023-02-22T12:52:21.970Z,13.44
2023-02-22T12:53:16.721Z,13.28
2023-02-22T12:54:16.739Z,13.23
2023-02-22T12:55:16.711Z,13.27
2023-02-22T12:56:16.699Z,13.29
2023-02-22T12:57:16.702Z,13.22
2023-02-22T12:58:16.678Z,13.12
2023-02-22T12:59:16.658Z,13.03
2023-02-22T13:00:16.698Z,12.97
2023-02-22T13:01:17.130Z,12.93
2023-02-22T13:02:16.629Z,12.91
2023-02-22T13:03:16.673Z,12.89
2023-02-22T13:04:20.918Z,12.83
2023-02-22T13:05:16.643Z,12.76
2023-02-22T13:06:16.619Z,12.63
2023-02-22T13:07:16.584Z,12.47
2023-02-22T13:08:16.581Z,12.31
2023-02-22T13:09:16.598Z,12.19
2023-02-22T13:10:16.575Z,12.12
2023-02-22T13:11:16.813Z,12.07
2023-02-22T13:12:16.530Z,12.02
2023-02-22T13:13:16.522Z,11.99
2023-02-22T13:14:16.582Z,11.99
2023-02-22T13:15:16.504Z,11.99
2023-02-22T13:16:16.494Z,11.98